Time;durP1;ratioP1;P1;durP2;ratioP2;P2;SDS_P1;SDS_P2;PMS_P1;PMS_P2;Temp;Humidity;BMP_temperature;BMP_pressure;BME280_temperature;BME280_humidity;BME280_pressure;Samples;Min_cycle;Max_cycle;Signal;HPM_P1;HPM_P2
2022/12/31 00:01:29;;;;;;;6.32;2.05;;;;;;;17.21;75.60;100265.81;5019854;28;20420;-72
2022/12/31 00:03:56;;;;;;;4.32;2.13;;;;;;;17.47;74.08;100268.03;5027246;28;20206;-73
2022/12/31 00:06:30;;;;;;;4.50;1.70;;;;;;;17.08;76.10;100280.03;5023603;28;20460;-75
2022/12/31 00:08:58;;;;;;;4.30;1.52;;;;;;;17.25;75.25;100277.75;5022446;28;20033;-75
2022/12/31 00:11:25;;;;;;;3.28;2.17;;;;;;;17.42;75.00;100278.16;5023146;28;20041;-74
2022/12/31 00:13:51;;;;;;;2.97;2.30;;;;;;;17.38;75.43;100279.81;5024320;28;20551;-73
2022/12/31 00:16:29;;;;;;;4.18;1.83;;;;;;;17.44;75.82;100281.38;4999859;28;20036;-74
2022/12/31 00:18:58;;;;;;;5.97;1.90;;;;;;;17.45;75.18;100285.75;5016357;28;20044;-76
2022/12/31 00:21:24;;;;;;;4.05;1.70;;;;;;;17.20;76.02;100280.47;5015707;28;20040;-74
2022/12/31 00:23:49;;;;;;;3.05;1.33;;;;;;;17.24;76.33;100281.53;4981585;28;20030;-75
2022/12/31 00:26:18;;;;;;;2.63;1.60;;;;;;;17.47;75.22;100270.75;5015096;28;20528;-75
2022/12/31 00:28:44;;;;;;;6.45;1.90;;;;;;;17.41;75.06;100276.53;5022808;28;20033;-75
2022/12/31 00:31:12;;;;;;;5.10;1.60;;;;;;;17.51;75.05;100282.72;5014245;28;20034;-76
2022/12/31 00:33:38;;;;;;;2.40;1.45;;;;;;;17.21;76.95;100293.78;5004708;28;20074;-75
2022/12/31 00:36:05;;;;;;;2.75;1.48;;;;;;;17.72;74.08;100280.66;5005726;28;20054;-75
2022/12/31 00:38:31;;;;;;;2.65;1.40;;;;;;;16.93;76.97;100275.50;5007881;28;20034;-75
2022/12/31 00:40:56;;;;;;;3.15;1.27;;;;;;;17.58;74.03;100282.41;5008302;28;20034;-75
2022/12/31 00:43:21;;;;;;;5.38;1.20;;;;;;;17.54;74.23;100275.91;5003208;28;20041;-72
2022/12/31 00:45:47;;;;;;;3.15;1.35;;;;;;;16.87;75.86;100276.63;5014878;28;20017;-75
2022/12/31 00:48:12;;;;;;;1.20;0.77;;;;;;;16.79;76.26;100276.38;5014777;28;20453;-74
2022/12/31 00:50:37;;;;;;;3.92;1.10;;;;;;;16.86;76.18;100275.00;5012539;28;20038;-75
2022/12/31 00:53:03;;;;;;;2.05;0.90;;;;;;;17.08;75.45;100271.91;4997133;28;20458;-76
2022/12/31 00:55:29;;;;;;;3.42;1.10;;;;;;;17.37;74.43;100289.88;5021474;28;20671;-75
2022/12/31 00:57:55;;;;;;;2.88;1.30;;;;;;;16.71;75.94;100285.94;5015364;28;20450;-74
2022/12/31 01:00:20;;;;;;;4.25;1.02;;;;;;;17.16;75.14;100287.59;5014281;28;20061;-74
2022/12/31 01:02:45;;;;;;;6.47;1.00;;;;;;;16.94;75.51;100296.13;5014497;28;20034;-76
2022/12/31 01:05:11;;;;;;;7.60;1.10;;;;;;;16.55;76.85;100304.16;5014420;28;20045;-78
2022/12/31 01:07:37;;;;;;;1.42;0.90;;;;;;;16.99;75.88;100284.41;5014203;28;20038;-75
2022/12/31 01:10:04;;;;;;;2.20;1.27;;;;;;;17.06;76.18;100295.78;5014741;28;20034;-75
2022/12/31 01:12:29;;;;;;;1.83;0.80;;;;;;;16.77;77.29;100300.28;5013430;28;20042;-74
2022/12/31 01:14:54;;;;;;;2.17;0.90;;;;;;;17.47;74.52;100297.13;5014050;28;20041;-75
2022/12/31 01:17:20;;;;;;;4.00;1.55;;;;;;;17.21;74.70;100290.25;5013932;28;20038;-76
2022/12/31 01:19:45;;;;;;;4.43;1.35;;;;;;;17.60;74.35;100288.34;5013858;28;20077;-76
2022/12/31 01:22:11;;;;;;;1.98;1.10;;;;;;;16.83;75.78;100291.84;5014584;28;20042;-76
2022/12/31 01:24:36;;;;;;;1.00;0.90;;;;;;;16.80;76.87;100305.97;5013759;28;20165;-76
2022/12/31 01:27:01;;;;;;;2.83;0.82;;;;;;;17.14;75.19;100309.56;5013897;28;20026;-76
2022/12/31 01:29:28;;;;;;;1.75;1.00;;;;;;;16.96;75.07;100309.44;5013867;28;20088;-76
2022/12/31 01:31:53;;;;;;;3.58;1.25;;;;;;;17.36;74.13;100323.56;5013620;28;20026;-76
2022/12/31 01:34:19;;;;;;;7.00;1.20;;;;;;;16.88;75.92;100321.69;4995635;28;20060;-74
2022/12/31 01:36:45;;;;;;;7.53;1.60;;;;;;;17.42;73.31;100319.72;5013336;28;20519;-75
2022/12/31 01:39:11;;;;;;;3.10;1.20;;;;;;;17.00;75.37;100310.50;5013172;28;20085;-75
2022/12/31 01:41:40;;;;;;;2.40;1.20;;;;;;;16.88;75.69;100318.97;4994794;28;20469;-76
2022/12/31 01:44:11;;;;;;;3.15;1.30;;;;;;;17.64;72.70;100318.47;5013058;28;20041;-76
2022/12/31 01:46:48;;;;;;;3.60;1.10;;;;;;;17.14;75.24;100327.78;5013456;28;20359;-74
2022/12/31 01:49:35;;;;;;;5.18;1.08;;;;;;;17.47;73.25;100325.09;5014246;28;20122;-75
2022/12/31 01:52:15;;;;;;;6.03;1.17;;;;;;;18.09;71.10;100312.63;5013146;28;20092;-75
2022/12/31 01:54:50;;;;;;;1.98;1.00;;;;;;;17.21;73.70;100322.84;4995654;28;20041;-75
2022/12/31 01:57:16;;;;;;;2.67;1.52;;;;;;;17.45;73.48;100312.91;5013178;28;20049;-75
2022/12/31 01:59:43;;;;;;;4.38;1.20;;;;;;;16.91;74.92;100312.97;5012970;28;20121;-74
2022/12/31 02:02:10;;;;;;;4.78;1.42;;;;;;;17.59;72.62;100304.94;5012701;28;20092;-73
2022/12/31 02:04:35;;;;;;;8.10;1.35;;;;;;;17.53;72.80;100306.91;5012639;28;20041;-74
2022/12/31 02:07:02;;;;;;;3.17;1.50;;;;;;;17.40;73.72;100307.50;5013526;28;20379;-74
2022/12/31 02:09:29;;;;;;;6.03;1.33;;;;;;;17.56;73.06;100306.31;5012768;28;20129;-75
2022/12/31 02:11:54;;;;;;;5.90;1.50;;;;;;;17.52;72.20;100311.53;5012477;28;20062;-75
2022/12/31 02:14:25;;;;;;;3.80;1.40;;;;;;;17.66;72.36;100306.25;5012506;28;20040;-75
2022/12/31 02:17:23;;;;;;;3.40;1.45;;;;;;;18.35;69.99;100324.88;5012311;28;20041;-74
2022/12/31 02:20:30;;;;;;;3.40;2.10;;;;;;;17.62;72.39;100316.06;5012457;28;20044;-74
2022/12/31 02:23:30;;;;;;;3.05;1.52;;;;;;;18.19;70.60;100315.25;4932390;28;20047;-74
2022/12/31 02:26:20;;;;;;;2.15;1.40;;;;;;;17.99;70.55;100308.09;4932461;28;20541;-75
2022/12/31 02:29:04;;;;;;;2.35;1.90;;;;;;;18.06;71.04;100297.69;4932647;28;20031;-74
2022/12/31 02:31:35;;;;;;;2.25;1.63;;;;;;;18.34;70.02;100306.91;4932381;28;20032;-73
2022/12/31 02:34:12;;;;;;;5.00;1.45;;;;;;;18.39;69.52;100304.97;4932792;29;20051;-75
2022/12/31 02:36:43;;;;;;;3.58;1.50;;;;;;;17.85;72.12;100299.00;4932374;28;20050;-73
2022/12/31 02:39:09;;;;;;;4.75;1.30;;;;;;;17.97;70.48;100298.63;4932415;29;20048;-74
2022/12/31 02:41:50;;;;;;;3.88;1.30;;;;;;;17.72;72.25;100296.97;4932251;29;20062;-76
2022/12/31 02:44:26;;;;;;;1.50;1.35;;;;;;;18.03;70.43;100275.72;4932980;29;20066;-75
2022/12/31 02:47:04;;;;;;;4.40;1.52;;;;;;;18.50;68.37;100273.03;4932041;28;20487;-75
2022/12/31 02:49:35;;;;;;;2.22;1.23;;;;;;;18.31;69.42;100270.25;4931628;29;20110;-74
2022/12/31 02:52:16;;;;;;;5.80;1.35;;;;;;;18.56;68.63;100273.78;4932765;29;20027;-74
2022/12/31 02:54:57;;;;;;;;;;;;;;;17.74;71.73;100289.31;4932949;28;20043;-74
2022/12/31 02:57:29;;;;;;;2.65;1.20;;;;;;;18.05;70.79;100279.78;4932164;28;20051;-74
2022/12/31 03:02:50;;;;;;;2.80;1.00;;;;;;;17.25;72.95;100308.44;5012091;28;20061;-74
2022/12/31 03:05:20;;;;;;;6.40;1.45;;;;;;;17.61;71.51;100289.19;5011814;28;20038;-75
2022/12/31 03:07:45;;;;;;;2.47;1.08;;;;;;;17.77;70.96;100288.75;5012356;28;20026;-73
2022/12/31 03:10:11;;;;;;;2.78;1.35;;;;;;;17.26;72.41;100292.91;5011472;28;20089;-74
2022/12/31 03:12:45;;;;;;;3.35;1.13;;;;;;;17.57;70.98;100291.66;5012036;28;20060;-73
2022/12/31 03:15:31;;;;;;;6.05;1.85;;;;;;;17.38;71.69;100301.53;5012121;28;20034;-74
2022/12/31 03:18:05;;;;;;;8.07;1.30;;;;;;;16.98;73.16;100318.88;5012268;28;20567;-73
2022/12/31 03:23:34;;;;;;;6.45;1.58;;;;;;;17.49;71.19;100308.56;4989918;28;20061;-73
2022/12/31 03:26:01;;;;;;;3.92;1.17;;;;;;;16.98;74.37;100318.09;4990088;28;20046;-74
2022/12/31 03:28:29;;;;;;;2.30;1.23;;;;;;;17.60;72.01;100306.56;4989917;28;20045;-72
2022/12/31 03:31:00;;;;;;;3.95;1.00;;;;;;;17.43;71.70;100301.50;4990369;28;20057;-74
2022/12/31 03:33:29;;;;;;;;;;;;;;;18.03;70.17;100301.00;4990172;28;20039;-75
2022/12/31 03:35:54;;;;;;;5.13;1.33;;;;;;;17.79;70.13;100299.34;4989635;28;19938;-74
2022/12/31 03:38:20;;;;;;;9.55;2.00;;;;;;;17.72;70.57;100296.13;4989691;28;20129;-75
2022/12/31 03:40:48;;;;;;;9.43;1.23;;;;;;;17.30;72.47;100305.66;4996560;28;20041;-75
2022/12/31 03:43:14;;;;;;;6.85;1.17;;;;;;;17.37;71.64;100319.75;5009583;28;20042;-73
2022/12/31 03:45:40;;;;;;;5.85;1.48;;;;;;;17.50;71.56;100310.16;5009020;28;20049;-75
2022/12/31 03:48:07;;;;;;;10.60;1.85;;;;;;;17.24;72.59;100312.22;5009029;28;20624;-74
2022/12/31 03:50:33;;;;;;;7.30;1.80;;;;;;;17.53;71.07;100312.34;5008399;28;20046;-74
2022/12/31 03:52:58;;;;;;;6.20;1.50;;;;;;;17.90;70.84;100314.47;4989352;28;20045;-74
2022/12/31 03:55:24;;;;;;;2.45;1.48;;;;;;;17.60;71.51;100320.97;4989468;28;20046;-74
2022/12/31 03:57:49;;;;;;;6.25;1.63;;;;;;;17.31;72.13;100328.22;4973286;28;20038;-74
2022/12/31 04:00:17;;;;;;;5.32;1.85;;;;;;;17.41;72.53;100320.00;4999305;28;20037;-75
2022/12/31 04:02:44;;;;;;;4.97;1.55;;;;;;;17.84;70.61;100327.28;5015174;28;20063;-75
2022/12/31 04:05:10;;;;;;;11.52;1.88;;;;;;;16.74;74.97;100326.09;5015130;28;20742;-74
2022/12/31 04:07:35;;;;;;;7.80;1.98;;;;;;;17.39;71.51;100328.41;5015456;28;20037;-74
2022/12/31 04:10:03;;;;;;;3.92;1.63;;;;;;;17.74;71.16;100321.13;5015918;28;20505;-74
2022/12/31 04:12:28;;;;;;;9.73;1.80;;;;;;;17.99;69.92;100304.56;5014906;28;20060;-75
2022/12/31 04:14:54;;;;;;;10.27;2.33;;;;;;;18.64;67.54;100308.50;5015144;28;20051;-74
2022/12/31 04:17:20;;;;;;;4.70;2.13;;;;;;;18.12;69.07;100303.91;5026851;28;20087;-74
2022/12/31 04:19:46;;;;;;;6.20;2.05;;;;;;;18.66;67.07;100292.69;5033374;28;20124;-74
2022/12/31 04:22:11;;;;;;;7.10;2.00;;;;;;;18.04;69.89;100293.66;5035242;28;20113;-75
2022/12/31 04:24:36;;;;;;;7.85;2.10;;;;;;;17.69;70.27;100285.84;5034489;28;20034;-74
2022/12/31 04:27:02;;;;;;;7.03;2.10;;;;;;;18.22;68.64;100282.84;5034741;28;20397;-73
2022/12/31 04:29:27;;;;;;;4.30;2.17;;;;;;;18.33;68.19;100284.38;5031641;28;20038;-74
2022/12/31 04:31:53;;;;;;;11.38;2.42;;;;;;;18.38;67.22;100283.47;5015053;28;20037;-74
2022/12/31 04:34:18;;;;;;;5.45;2.65;;;;;;;18.08;68.15;100276.47;5015184;28;20548;-73
2022/12/31 04:36:43;;;;;;;5.28;2.60;;;;;;;18.61;66.66;100277.25;5015337;28;20042;-74
2022/12/31 04:39:09;;;;;;;5.15;2.72;;;;;;;18.23;68.17;100270.88;5014808;28;20098;-74
2022/12/31 04:41:34;;;;;;;6.95;3.20;;;;;;;18.48;67.41;100272.50;5014628;28;20042;-74
2022/12/31 04:44:02;;;;;;;7.50;2.38;;;;;;;18.18;68.12;100283.72;5014624;28;20040;-74
2022/12/31 04:46:29;;;;;;;2.58;2.10;;;;;;;18.51;67.38;100285.56;5014260;28;20042;-74
2022/12/31 04:48:56;;;;;;;4.72;2.42;;;;;;;18.41;67.26;100294.63;4996593;28;20045;-74
2022/12/31 04:51:22;;;;;;;4.78;2.33;;;;;;;17.56;69.80;100292.75;5014319;28;20048;-73
2022/12/31 04:53:48;;;;;;;1.45;1.30;;;;;;;17.84;70.31;100294.66;4994591;28;20045;-74
2022/12/31 04:56:15;;;;;;;3.15;1.80;;;;;;;17.42;70.51;100297.16;4994668;28;20039;-73
2022/12/31 04:58:40;;;;;;;3.20;1.88;;;;;;;18.08;69.26;100302.88;4994737;28;20030;-73
2022/12/31 05:01:07;;;;;;;6.45;2.10;;;;;;;17.70;70.05;100307.28;4995985;28;20074;-74
2022/12/31 05:03:32;;;;;;;5.43;1.77;;;;;;;17.59;70.60;100307.66;5013440;28;20065;-74
2022/12/31 05:06:04;;;;;;;1.73;1.20;;;;;;;17.11;71.81;100304.72;5013314;28;20576;-75
2022/12/31 05:08:29;;;;;;;2.72;1.02;;;;;;;17.83;69.58;100298.47;4995520;28;20033;-74
2022/12/31 05:10:55;;;;;;;4.55;0.85;;;;;;;17.00;72.87;100308.56;5013521;28;20033;-73
2022/12/31 05:13:21;;;;;;;4.53;1.17;;;;;;;16.93;73.80;100323.53;5012720;28;20050;-74
2022/12/31 05:15:46;;;;;;;2.55;1.13;;;;;;;17.20;72.02;100307.63;5013515;28;20080;-74
2022/12/31 05:18:12;;;;;;;2.95;0.88;;;;;;;17.16;71.90;100318.25;5013826;28;20037;-72
2022/12/31 05:20:38;;;;;;;2.42;1.10;;;;;;;17.33;70.95;100317.88;5013519;28;20485;-74
2022/12/31 05:23:03;;;;;;;3.10;1.08;;;;;;;17.55;70.21;100313.66;5011922;28;20122;-73
2022/12/31 05:25:29;;;;;;;3.70;1.33;;;;;;;18.11;68.38;100308.53;5013523;28;20029;-73
2022/12/31 05:27:54;;;;;;;4.70;1.85;;;;;;;18.57;66.36;100303.44;5013858;28;20029;-74
2022/12/31 05:30:20;;;;;;;3.95;1.20;;;;;;;18.37;66.86;100309.91;4995385;28;20041;-74
2022/12/31 05:32:45;;;;;;;4.38;1.38;;;;;;;17.80;68.39;100306.41;5012902;28;20084;-74
2022/12/31 05:35:11;;;;;;;3.60;1.20;;;;;;;17.83;68.58;100309.34;5013454;28;20435;-76
2022/12/31 05:37:37;;;;;;;2.25;1.58;;;;;;;18.30;67.13;100314.03;5013323;28;20026;-74
2022/12/31 05:40:03;;;;;;;1.95;1.27;;;;;;;18.29;67.39;100307.00;5013932;28;20481;-75
2022/12/31 05:42:28;;;;;;;2.95;1.40;;;;;;;18.79;65.67;100309.13;5013500;28;20045;-75
2022/12/31 05:44:54;;;;;;;5.75;2.42;;;;;;;17.79;69.38;100323.81;5013137;28;20041;-74
2022/12/31 05:47:19;;;;;;;5.05;1.60;;;;;;;17.48;70.46;100324.03;5013468;28;20030;-73
2022/12/31 05:49:45;;;;;;;3.45;1.33;;;;;;;18.35;66.89;100306.66;5013066;28;20037;-73
2022/12/31 05:52:10;;;;;;;2.97;1.50;;;;;;;18.03;67.86;100311.06;5013436;28;20037;-73
2022/12/31 05:54:36;;;;;;;2.70;1.00;;;;;;;18.05;67.88;100306.16;5012824;28;20044;-73
2022/12/31 05:57:02;;;;;;;3.15;1.08;;;;;;;18.38;67.37;100306.06;5012603;28;20125;-73
2022/12/31 05:59:28;;;;;;;1.98;1.30;;;;;;;18.57;66.51;100311.59;5012591;28;20033;-73
2022/12/31 06:01:54;;;;;;;2.65;1.13;;;;;;;18.25;66.86;100319.53;5012240;28;20045;-75
2022/12/31 06:04:19;;;;;;;1.88;1.63;;;;;;;17.53;69.62;100317.78;5012848;28;20050;-74
2022/12/31 06:06:45;;;;;;;3.85;1.88;;;;;;;18.28;67.66;100318.97;5012617;28;20046;-73
2022/12/31 06:09:10;;;;;;;3.33;2.30;;;;;;;18.33;66.52;100325.19;5012494;28;20041;-74
2022/12/31 06:11:35;;;;;;;2.38;2.08;;;;;;;18.91;64.72;100319.59;4994375;28;20494;-74
2022/12/31 06:14:01;;;;;;;4.50;3.10;;;;;;;18.51;66.51;100331.81;5012704;28;20026;-73
2022/12/31 06:16:26;;;;;;;3.30;2.58;;;;;;;18.33;67.00;100318.91;5012281;28;20065;-73
2022/12/31 06:18:53;;;;;;;4.43;2.75;;;;;;;18.46;66.93;100331.03;5012900;28;20025;-73
2022/12/31 06:21:20;;;;;;;4.40;3.13;;;;;;;18.86;65.34;100320.50;5012196;28;20030;-73
2022/12/31 06:23:46;;;;;;;3.58;2.83;;;;;;;18.81;65.12;100323.25;5011843;28;20034;-74
2022/12/31 06:26:11;;;;;;;4.38;3.50;;;;;;;18.63;65.94;100310.44;5011693;28;20034;-74
2022/12/31 06:28:36;;;;;;;6.13;3.67;;;;;;;18.52;65.68;100310.81;5012413;28;20092;-73
2022/12/31 06:31:04;;;;;;;4.82;3.70;;;;;;;17.47;69.76;100318.88;5012975;28;20113;-72
2022/12/31 06:33:30;;;;;;;5.00;3.90;;;;;;;18.24;67.36;100321.44;5011991;28;20092;-74
2022/12/31 06:35:57;;;;;;;4.95;4.45;;;;;;;18.80;64.97;100315.38;5011940;28;20120;-73
2022/12/31 06:38:28;;;;;;;4.72;3.90;;;;;;;18.23;67.82;100324.47;5012140;28;20076;-73
2022/12/31 06:40:54;;;;;;;3.92;3.60;;;;;;;18.57;66.54;100319.78;5012048;28;20042;-73
2022/12/31 06:43:20;;;;;;;5.18;4.30;;;;;;;18.85;64.71;100318.06;5012497;28;20033;-75
2022/12/31 06:45:45;;;;;;;5.03;4.30;;;;;;;18.51;66.95;100315.47;5011929;28;20037;-73
2022/12/31 06:48:11;;;;;;;3.10;2.78;;;;;;;18.15;66.94;100322.38;5012094;28;20048;-74
2022/12/31 06:50:36;;;;;;;4.00;2.45;;;;;;;18.25;67.59;100308.66;5012211;28;20120;-76
2022/12/31 06:53:01;;;;;;;6.35;2.60;;;;;;;17.80;69.91;100318.09;5012018;28;20053;-74
2022/12/31 06:55:27;;;;;;;3.20;2.40;;;;;;;18.43;67.33;100310.69;4994057;28;20053;-72
2022/12/31 06:57:53;;;;;;;2.60;2.08;;;;;;;17.98;69.38;100320.09;5012365;28;20438;-75
2022/12/31 07:00:19;;;;;;;4.05;1.70;;;;;;;17.65;71.17;100318.19;5012220;28;20098;-75
2022/12/31 07:02:47;;;;;;;2.80;1.70;;;;;;;17.81;70.52;100319.69;5011749;28;20037;-73
2022/12/31 07:05:16;;;;;;;2.42;1.90;;;;;;;17.76;71.26;100316.22;5011868;28;20046;-75
2022/12/31 07:07:44;;;;;;;2.35;1.70;;;;;;;18.01;70.71;100316.78;5012192;28;20030;-74
2022/12/31 07:10:24;;;;;;;5.55;2.00;;;;;;;17.72;71.96;100315.16;5012577;28;20038;-75
2022/12/31 07:12:55;;;;;;;1.40;1.20;;;;;;;18.24;69.30;100326.06;5012080;28;20108;-73
2022/12/31 07:15:39;;;;;;;1.50;1.40;;;;;;;18.22;70.10;100320.13;5011749;28;20565;-73
2022/12/31 07:18:10;;;;;;;1.55;1.45;;;;;;;17.95;71.54;100317.13;5011829;28;20092;-74
2022/12/31 07:20:36;;;;;;;3.38;1.50;;;;;;;17.65;72.65;100328.28;5011967;28;20486;-75
2022/12/31 07:23:01;;;;;;;1.40;1.13;;;;;;;17.49;73.84;100320.22;5011850;28;20038;-74
2022/12/31 07:25:27;;;;;;;1.55;1.35;;;;;;;16.91;77.01;100315.69;5012603;28;20109;-73
2022/12/31 07:28:16;;;;;;;1.50;1.20;;;;;;;16.74;78.43;100317.13;5012617;28;20022;-74
2022/12/31 07:30:53;;;;;;;3.45;1.50;;;;;;;17.17;76.96;100316.34;4931891;29;20095;-73
2022/12/31 07:33:37;;;;;;;1.02;0.88;;;;;;;17.40;77.14;100319.19;4931724;29;20039;-74
2022/12/31 07:36:39;;;;;;;2.58;0.90;;;;;;;17.30;77.68;100305.66;4933360;29;20064;-75
2022/12/31 07:39:21;;;;;;;3.83;1.00;;;;;;;17.43;77.30;100307.72;4935422;29;20050;-76
2022/12/31 07:41:57;;;;;;;1.02;0.90;;;;;;;17.53;76.93;100312.34;4935684;29;20090;-75
2022/12/31 07:44:36;;;;;;;0.85;0.80;;;;;;;17.39;78.04;100320.25;4919475;29;20028;-73
2022/12/31 07:47:04;;;;;;;1.27;1.02;;;;;;;17.57;78.08;100310.69;4935393;29;20668;-74
2022/12/31 07:49:32;;;;;;;1.40;1.20;;;;;;;17.87;76.42;100317.72;4935303;29;20074;-74
2022/12/31 07:51:57;;;;;;;1.67;1.58;;;;;;;17.74;77.26;100324.66;4935675;29;20043;-75
2022/12/31 07:54:23;;;;;;;2.88;1.75;;;;;;;17.85;76.32;100323.47;4935440;29;20042;-73
2022/12/31 07:56:49;;;;;;;3.50;2.00;;;;;;;17.82;77.67;100326.75;4935273;29;20404;-74
2022/12/31 07:59:26;;;;;;;2.13;1.92;;;;;;;17.55;77.41;100343.53;4935471;29;20375;-77
2022/12/31 08:02:07;;;;;;;2.13;1.92;;;;;;;17.85;77.51;100336.22;4916827;29;20058;-75
2022/12/31 08:04:56;;;;;;;2.10;1.55;;;;;;;17.76;77.39;100352.38;4916270;29;20044;-74
2022/12/31 08:07:43;;;;;;;3.00;1.27;;;;;;;17.87;77.99;100347.63;4944236;28;20046;-74
2022/12/31 08:10:19;;;;;;;3.70;1.58;;;;;;;17.71;78.69;100370.63;4995899;28;20045;-76
2022/12/31 08:12:48;;;;;;;1.45;1.33;;;;;;;17.75;78.04;100369.75;4995247;28;20055;-74
2022/12/31 08:15:16;;;;;;;1.17;1.05;;;;;;;17.86;78.38;100346.84;4997333;28;20061;-74
2022/12/31 08:17:42;;;;;;;1.60;1.00;;;;;;;17.65;78.78;100364.38;5014818;28;20129;-74
2022/12/31 08:20:12;;;;;;;0.80;0.80;;;;;;;17.69;79.53;100360.00;5015335;28;20482;-74
2022/12/31 08:22:46;;;;;;;0.77;0.65;;;;;;;17.63;78.43;100363.06;5015911;28;20061;-76
2022/12/31 08:25:24;;;;;;;0.60;0.50;;;;;;;17.45;79.26;100378.91;5015914;28;20069;-76
2022/12/31 08:28:15;;;;;;;1.35;0.70;;;;;;;17.80;79.47;100358.03;5015671;28;20502;-74
2022/12/31 08:30:41;;;;;;;0.55;0.43;;;;;;;18.00;77.15;100364.13;5015424;28;20125;-75
2022/12/31 08:33:34;;;;;;;0.95;0.70;;;;;;;18.14;77.90;100362.34;5015326;28;20541;-75
2022/12/31 08:36:13;;;;;;;1.95;0.70;;;;;;;17.83;79.04;100362.88;5014515;28;20046;-74
2022/12/31 08:38:59;;;;;;;1.75;0.50;;;;;;;17.90;78.80;100366.94;5015308;28;20390;-76
2022/12/31 08:41:37;;;;;;;1.52;0.63;;;;;;;17.70;79.66;100372.53;5015253;28;20049;-78
2022/12/31 08:44:26;;;;;;;1.88;0.70;;;;;;;17.78;79.08;100362.94;5015181;28;20062;-77
2022/12/31 08:47:02;;;;;;;0.98;0.73;;;;;;;17.75;79.07;100366.25;5014689;28;20045;-74
2022/12/31 08:49:31;;;;;;;0.55;0.50;;;;;;;17.66;78.41;100404.06;5014938;28;20343;-75
2022/12/31 08:51:57;;;;;;;0.85;0.60;;;;;;;17.88;77.99;100412.63;5015778;28;20165;-77
2022/12/31 08:54:23;;;;;;;2.58;0.70;;;;;;;17.51;79.01;100382.44;5012683;28;20528;-73
2022/12/31 08:57:26;;;;;;;1.33;0.77;;;;;;;17.63;78.08;100403.84;5014185;28;20046;-74
2022/12/31 09:00:06;;;;;;;1.75;0.45;;;;;;;17.73;76.93;100384.75;5013527;28;20132;-75
2022/12/31 09:03:05;;;;;;;0.50;0.50;;;;;;;17.60;78.02;100371.78;5014017;28;20037;-76
2022/12/31 09:06:01;;;;;;;0.93;0.52;;;;;;;17.65;77.08;100397.00;5007055;28;20054;-75
2022/12/31 09:08:57;;;;;;;2.47;0.93;;;;;;;18.09;77.06;100391.50;5015043;28;20080;-75
2022/12/31 09:11:44;;;;;;;4.05;0.77;;;;;;;18.19;76.14;100389.50;5011194;28;20038;-74
2022/12/31 09:14:42;;;;;;;4.63;0.90;;;;;;;18.34;74.04;100391.25;5011095;28;20069;-73
2022/12/31 09:17:26;;;;;;;0.60;0.60;;;;;;;17.57;77.70;100400.34;5012625;28;20042;-75
2022/12/31 09:19:52;;;;;;;0.65;0.65;;;;;;;17.60;77.41;100415.25;4989033;28;20046;-75
2022/12/31 09:22:17;;;;;;;0.75;0.60;;;;;;;18.10;75.43;100412.16;4994780;28;20049;-76
2022/12/31 09:24:43;;;;;;;1.80;0.60;;;;;;;18.06;75.88;100414.63;5007802;28;20040;-74
2022/12/31 09:27:17;;;;;;;1.33;0.80;;;;;;;17.53;77.50;100413.66;5011424;28;20037;-75
2022/12/31 09:30:02;;;;;;;1.45;0.60;;;;;;;17.59;78.19;100414.47;5010523;28;20042;-75
2022/12/31 09:32:47;;;;;;;0.73;0.50;;;;;;;17.60;78.17;100418.78;5010175;28;20044;-73
2022/12/31 09:35:30;;;;;;;3.33;0.65;;;;;;;17.68;77.43;100444.53;5008996;28;20030;-74
2022/12/31 09:38:20;;;;;;;0.98;0.50;;;;;;;17.18;80.31;100440.16;5008953;28;20677;-75
2022/12/31 09:40:48;;;;;;;0.73;0.70;;;;;;;17.56;79.73;100453.03;5010060;28;20034;-73
2022/12/31 09:43:28;;;;;;;0.95;0.60;;;;;;;17.75;78.91;100461.38;5010434;28;20018;-74
2022/12/31 09:46:03;;;;;;;1.05;0.80;;;;;;;17.59;78.77;100457.94;5008425;28;20061;-75
2022/12/31 09:48:51;;;;;;;1.52;0.75;;;;;;;17.83;77.60;100468.91;5011059;28;20706;-73
2022/12/31 09:51:28;;;;;;;1.15;0.80;;;;;;;18.19;76.69;100468.38;5009629;28;20109;-75
2022/12/31 09:53:59;;;;;;;2.70;0.75;;;;;;;18.04;77.82;100484.00;5011177;28;20030;-74
2022/12/31 09:56:32;;;;;;;2.78;0.80;;;;;;;18.02;77.89;100461.72;5008949;28;20081;-73
2022/12/31 09:59:09;;;;;;;2.05;0.80;;;;;;;18.14;77.05;100451.31;5011308;28;20029;-74
2022/12/31 10:02:01;;;;;;;1.02;0.93;;;;;;;18.21;77.24;100466.19;5007650;28;20036;-74
2022/12/31 10:04:38;;;;;;;1.13;1.00;;;;;;;18.29;76.68;100467.47;5009593;28;20026;-72
2022/12/31 10:07:42;;;;;;;2.83;1.00;;;;;;;18.58;75.04;100462.06;5010102;28;20030;-73
2022/12/31 10:10:29;;;;;;;1.80;0.70;;;;;;;18.32;76.70;100472.34;5009098;28;20034;-74
2022/12/31 10:13:11;;;;;;;1.65;0.50;;;;;;;18.40;76.11;100471.72;5008467;28;20053;-75
2022/12/31 10:15:56;;;;;;;2.80;0.73;;;;;;;18.73;75.01;100475.56;5010326;28;20061;-73
2022/12/31 10:18:59;;;;;;;2.08;0.85;;;;;;;18.26;76.07;100503.41;5009213;28;20038;-74
2022/12/31 10:21:45;;;;;;;2.22;0.65;;;;;;;18.17;77.12;100489.63;5008384;28;20575;-73
2022/12/31 10:24:33;;;;;;;2.85;0.88;;;;;;;18.32;76.70;100480.50;5006600;28;20625;-72
2022/12/31 10:27:07;;;;;;;6.07;1.00;;;;;;;18.24;77.82;100498.25;5007018;28;20037;-74
2022/12/31 10:29:44;;;;;;;6.97;1.55;;;;;;;17.34;81.11;100466.97;5009899;28;20075;-75
2022/12/31 10:32:40;;;;;;;2.40;1.52;;;;;;;17.69;81.94;100457.84;5008498;28;20117;-75
2022/12/31 10:35:30;;;;;;;1.05;0.90;;;;;;;17.99;79.25;100484.84;4927371;29;20043;-74
2022/12/31 10:37:55;;;;;;;2.58;1.25;;;;;;;18.00;79.19;100480.22;4929105;29;20123;-74
2022/12/31 10:40:52;;;;;;;1.55;1.33;;;;;;;18.39;78.36;100472.84;4930710;29;20134;-73
2022/12/31 10:43:36;;;;;;;4.88;1.52;;;;;;;18.31;77.75;100459.84;4929527;29;20500;-74
2022/12/31 10:46:47;;;;;;;3.63;1.80;;;;;;;18.43;77.70;100501.13;4931252;29;20047;-73
2022/12/31 10:49:41;;;;;;;2.05;1.45;;;;;;;18.28;78.78;100476.72;4930813;29;20500;-76
2022/12/31 10:52:42;;;;;;;5.65;1.35;;;;;;;18.52;77.53;100474.09;4917458;29;20070;-75
2022/12/31 10:55:24;;;;;;;4.93;1.50;;;;;;;18.53;77.96;100484.72;4910741;29;20119;-73
2022/12/31 10:58:14;;;;;;;3.35;1.20;;;;;;;19.22;74.35;100470.66;4896432;29;20077;-74
2022/12/31 11:00:57;;;;;;;2.00;1.35;;;;;;;19.05;75.23;100467.56;4911183;29;20146;-73
2022/12/31 11:03:39;;;;;;;6.95;2.05;;;;;;;18.65;77.31;100460.66;4909870;29;20040;-75
2022/12/31 11:06:35;;;;;;;6.20;2.22;;;;;;;19.02;76.73;100479.06;4909286;29;20076;-74
2022/12/31 11:09:29;;;;;;;2.17;1.20;;;;;;;19.20;75.99;100461.94;4908074;29;20049;-73
2022/12/31 11:12:12;;;;;;;7.07;2.00;;;;;;;19.27;76.55;100486.91;4923260;29;20061;-75
2022/12/31 11:15:01;;;;;;;4.22;1.48;;;;;;;19.24;75.96;100482.06;4945633;28;20043;-74
2022/12/31 11:17:36;;;;;;;4.45;1.50;;;;;;;18.89;78.16;100472.38;4948268;29;20047;-74
2022/12/31 11:20:22;;;;;;;6.93;1.88;;;;;;;18.88;76.80;100465.31;4949514;28;20131;-75
2022/12/31 11:23:21;;;;;;;4.30;1.88;;;;;;;19.05;76.55;100473.00;4949301;29;20063;-74
2022/12/31 11:26:10;;;;;;;3.83;1.35;;;;;;;18.88;76.87;100476.22;4948976;28;20066;-75
2022/12/31 11:28:44;;;;;;;3.50;1.75;;;;;;;19.62;75.33;100477.50;4964096;28;20064;-76
2022/12/31 11:31:26;;;;;;;6.18;1.98;;;;;;;18.85;77.13;100493.09;5007710;28;20026;-76
2022/12/31 11:34:28;;;;;;;5.43;1.65;;;;;;;19.35;74.84;100477.31;5008123;28;20052;-73
2022/12/31 11:37:12;;;;;;;4.97;1.60;;;;;;;19.25;76.17;100486.41;5010810;28;20052;-75
2022/12/31 11:40:16;;;;;;;5.85;2.33;;;;;;;19.29;75.32;100495.63;5009081;28;20052;-75
2022/12/31 11:43:02;;;;;;;6.10;1.75;;;;;;;19.16;76.62;100497.13;5006925;28;20056;-77
2022/12/31 11:45:47;;;;;;;3.30;1.33;;;;;;;18.65;78.71;100478.91;5013824;28;20405;-77
2022/12/31 11:48:33;;;;;;;2.00;1.23;;;;;;;18.61;79.42;100489.56;5006273;28;20041;-74
2022/12/31 11:51:02;;;;;;;4.32;1.60;;;;;;;18.85;78.53;100482.22;4990063;28;20034;-74
2022/12/31 11:53:38;;;;;;;3.35;2.30;;;;;;;19.20;77.58;100491.94;5007568;28;20092;-72
2022/12/31 11:56:13;;;;;;;14.73;2.13;;;;;;;18.53;78.76;100483.91;5008010;28;20048;-76
2022/12/31 11:58:47;;;;;;;4.70;1.70;;;;;;;18.73;79.68;100495.41;5004181;28;20110;-75
2022/12/31 12:01:21;;;;;;;4.47;1.90;;;;;;;19.03;77.78;100491.56;5003624;28;20038;-76